createdAt,value
2018-08-24T00:00:05.865Z,0.00
2018-08-24T00:01:05.880Z,0.00
2018-08-24T00:02:58.806Z,0.00
2018-08-24T00:03:58.831Z,0.00
2018-08-24T00:05:51.757Z,0.00
2018-08-24T00:06:51.772Z,0.00
2018-08-24T00:08:44.711Z,0.00
2018-08-24T00:09:44.715Z,0.00
2018-08-24T00:11:37.631Z,0.00
2018-08-24T00:12:37.654Z,0.00
2018-08-24T00:14:30.581Z,0.00
2018-08-24T00:15:30.602Z,0.00
2018-08-24T00:17:23.512Z,0.00
2018-08-24T00:18:23.535Z,0.00
2018-08-24T00:20:16.455Z,0.00
2018-08-24T00:21:16.473Z,0.00
2018-08-24T00:23:09.385Z,0.00
2018-08-24T00:24:09.409Z,0.00
2018-08-24T00:26:02.334Z,0.00
2018-08-24T00:27:02.352Z,0.00
2018-08-24T00:28:55.264Z,0.00
2018-08-24T00:29:55.290Z,0.00
2018-08-24T00:31:48.259Z,0.00
2018-08-24T00:32:48.229Z,0.00
2018-08-24T00:34:41.155Z,0.00
2018-08-24T00:35:41.169Z,0.00
2018-08-24T00:37:34.080Z,0.00
2018-08-24T00:38:34.106Z,0.00
2018-08-24T00:40:27.028Z,0.00
2018-08-24T00:41:27.047Z,0.00
2018-08-24T00:43:19.959Z,0.00
2018-08-24T00:44:19.983Z,0.00
2018-08-24T00:46:12.905Z,0.00
2018-08-24T00:47:12.919Z,0.00
2018-08-24T00:49:05.840Z,0.00
2018-08-24T00:50:05.862Z,0.00
2018-08-24T00:51:58.782Z,0.00
2018-08-24T00:52:58.798Z,0.00
2018-08-24T00:54:51.723Z,0.00
2018-08-24T00:55:51.743Z,0.00
2018-08-24T00:57:44.652Z,0.00
2018-08-24T00:58:44.674Z,0.00
2018-08-24T01:00:37.597Z,0.00
2018-08-24T01:01:37.611Z,0.00
2018-08-24T01:03:30.529Z,0.00
2018-08-24T01:04:30.548Z,0.00
2018-08-24T01:06:23.474Z,0.00
2018-08-24T01:07:23.501Z,0.00
2018-08-24T01:09:16.401Z,0.00
2018-08-24T01:10:16.426Z,0.00
2018-08-24T01:12:09.346Z,0.00
2018-08-24T01:13:09.362Z,0.00
2018-08-24T01:15:02.284Z,0.00
2018-08-24T01:16:02.303Z,0.00
2018-08-24T01:17:55.210Z,0.00
2018-08-24T01:18:55.236Z,0.00
2018-08-24T01:20:48.155Z,0.00
2018-08-24T01:21:48.172Z,0.00
2018-08-24T01:23:41.249Z,0.00
2018-08-24T01:24:41.275Z,0.00
2018-08-24T01:26:34.193Z,0.00
2018-08-24T01:27:34.206Z,0.00
2018-08-24T01:29:27.119Z,0.00
2018-08-24T01:30:27.147Z,0.00
2018-08-24T01:32:20.066Z,0.00
2018-08-24T01:33:20.081Z,0.00
2018-08-24T01:35:13.004Z,0.00
2018-08-24T01:36:13.017Z,0.00
2018-08-24T01:38:05.931Z,0.00
2018-08-24T01:39:05.955Z,0.00
2018-08-24T01:40:58.877Z,0.00
2018-08-24T01:41:58.895Z,0.00
2018-08-24T01:43:51.801Z,0.00
2018-08-24T01:44:51.827Z,0.00
2018-08-24T01:46:44.748Z,0.00
2018-08-24T01:47:44.762Z,0.00
2018-08-24T01:49:37.673Z,0.00
2018-08-24T01:50:37.696Z,0.00
2018-08-24T01:52:30.617Z,0.00
2018-08-24T01:53:30.633Z,0.00
2018-08-24T01:55:23.560Z,0.00
2018-08-24T01:56:23.573Z,0.00
2018-08-24T01:58:16.486Z,0.00
2018-08-24T01:59:16.510Z,0.00
2018-08-24T02:01:09.429Z,0.00
2018-08-24T02:02:09.442Z,0.00
2018-08-24T02:04:02.354Z,0.00
2018-08-24T02:05:02.379Z,0.00
2018-08-24T02:06:55.298Z,0.00
2018-08-24T02:07:55.312Z,0.00
2018-08-24T02:09:48.229Z,0.00
2018-08-24T02:10:48.249Z,0.00
2018-08-24T02:12:41.172Z,0.00
2018-08-24T02:13:41.186Z,0.00
2018-08-24T02:15:34.113Z,0.00
2018-08-24T02:16:34.126Z,0.00
2018-08-24T02:18:27.037Z,0.00
2018-08-24T02:19:27.063Z,0.00
2018-08-24T02:21:19.980Z,0.00
2018-08-24T02:22:19.996Z,0.00
2018-08-24T02:24:12.907Z,0.00
2018-08-24T02:25:12.930Z,0.00
2018-08-24T02:27:05.850Z,0.00
2018-08-24T02:28:05.863Z,0.00
2018-08-24T02:29:58.781Z,0.00
2018-08-24T02:30:58.799Z,0.00
2018-08-24T02:32:51.724Z,0.00
2018-08-24T02:33:51.742Z,0.00
2018-08-24T02:35:44.652Z,0.00
2018-08-24T02:36:44.677Z,0.00
2018-08-24T02:38:37.596Z,0.00
2018-08-24T02:39:37.613Z,0.00
2018-08-24T02:41:30.533Z,0.00
2018-08-24T02:42:30.548Z,0.00
2018-08-24T02:44:23.464Z,0.00
2018-08-24T02:45:23.485Z,0.00
2018-08-24T02:47:16.410Z,0.00
2018-08-24T02:48:16.426Z,0.00
2018-08-24T02:50:09.331Z,0.00
2018-08-24T02:51:09.360Z,0.00
2018-08-24T02:53:02.272Z,0.00
2018-08-24T02:54:02.289Z,0.00
2018-08-24T02:55:55.201Z,0.00
2018-08-24T02:56:55.222Z,0.00
2018-08-24T02:58:48.143Z,0.00
2018-08-24T02:59:48.159Z,0.00
2018-08-24T03:01:41.084Z,0.00
2018-08-24T03:02:41.098Z,0.00
2018-08-24T03:04:34.009Z,0.00
2018-08-24T03:05:34.190Z,0.00
2018-08-24T03:07:26.947Z,0.00
2018-08-24T03:08:27.091Z,0.00
2018-08-24T03:10:19.875Z,0.00
2018-08-24T03:11:19.899Z,0.00
2018-08-24T03:13:14.012Z,0.00
2018-08-24T03:14:14.029Z,0.00
2018-08-24T03:16:06.972Z,0.00
2018-08-24T03:17:06.962Z,0.00
2018-08-24T03:18:59.884Z,0.00
2018-08-24T03:19:59.899Z,0.00
2018-08-24T03:21:52.958Z,0.00
2018-08-24T03:22:52.974Z,0.00
2018-08-24T03:24:45.884Z,0.00
2018-08-24T03:25:45.914Z,0.00
2018-08-24T03:27:38.831Z,0.00
2018-08-24T03:28:38.845Z,0.00
2018-08-24T03:30:31.758Z,0.00
2018-08-24T03:31:31.782Z,0.00
2018-08-24T03:33:24.708Z,0.00
2018-08-24T03:34:24.727Z,0.00
2018-08-24T03:36:17.644Z,0.00
2018-08-24T03:37:17.670Z,0.00
2018-08-24T03:39:10.583Z,0.00
2018-08-24T03:40:10.598Z,0.00
2018-08-24T03:42:03.520Z,0.00
2018-08-24T03:43:03.532Z,0.00
2018-08-24T03:44:56.453Z,0.00
2018-08-24T03:45:56.540Z,0.00
2018-08-24T03:47:49.394Z,0.00
2018-08-24T03:48:49.410Z,0.00
2018-08-24T03:50:42.319Z,0.00
2018-08-24T03:51:42.378Z,0.00
2018-08-24T03:53:35.265Z,0.00
2018-08-24T03:54:35.279Z,0.00
2018-08-24T03:56:28.191Z,0.00
2018-08-24T03:57:28.214Z,0.00
2018-08-24T03:59:21.139Z,0.00
2018-08-24T04:00:21.148Z,0.00
2018-08-24T04:02:14.088Z,0.00
2018-08-24T04:03:14.084Z,0.00
2018-08-24T04:05:07.006Z,0.00
2018-08-24T04:06:07.025Z,0.00
2018-08-24T04:07:59.947Z,0.00
2018-08-24T04:08:59.963Z,0.00
2018-08-24T04:10:52.875Z,0.00
2018-08-24T04:11:52.902Z,0.00
2018-08-24T04:13:45.819Z,0.00
2018-08-24T04:14:45.834Z,0.00
2018-08-24T04:16:38.747Z,0.00
2018-08-24T04:17:38.763Z,0.00
2018-08-24T04:19:31.840Z,0.00
2018-08-24T04:20:31.718Z,0.00
2018-08-24T04:22:24.628Z,0.00
2018-08-24T04:23:24.647Z,0.00
2018-08-24T04:25:17.771Z,0.00
2018-08-24T04:26:17.802Z,0.00
2018-08-24T04:28:10.714Z,0.00
2018-08-24T04:29:10.728Z,0.00
2018-08-24T04:31:03.642Z,0.00
2018-08-24T04:32:03.665Z,5.63
2018-08-24T04:33:56.586Z,5.63
2018-08-24T04:34:56.608Z,5.63
2018-08-24T04:36:49.512Z,5.63
2018-08-24T04:37:49.535Z,5.63
2018-08-24T04:39:42.464Z,11.25
2018-08-24T04:40:42.475Z,16.88
2018-08-24T04:42:35.397Z,28.13
2018-08-24T04:43:35.411Z,28.13
2018-08-24T04:45:28.333Z,28.13
2018-08-24T04:46:28.348Z,16.88
2018-08-24T04:48:21.291Z,16.88
2018-08-24T04:49:21.285Z,11.25
2018-08-24T04:51:14.203Z,22.50
2018-08-24T04:52:14.222Z,28.13
2018-08-24T04:54:07.143Z,28.13
2018-08-24T04:55:07.156Z,28.13
2018-08-24T04:57:00.079Z,28.13
2018-08-24T04:58:00.104Z,22.50
2018-08-24T04:59:53.028Z,11.25
2018-08-24T05:00:53.040Z,22.50
2018-08-24T05:02:45.970Z,28.13
2018-08-24T05:03:45.998Z,28.13
2018-08-24T05:05:39.147Z,22.50
2018-08-24T05:06:39.141Z,22.50
2018-08-24T05:08:32.065Z,22.50
2018-08-24T05:09:32.080Z,28.13
2018-08-24T05:11:24.991Z,28.13
2018-08-24T05:12:25.015Z,22.50
2018-08-24T05:14:17.933Z,11.25
2018-08-24T05:15:18.152Z,5.63
2018-08-24T05:17:10.858Z,11.25
2018-08-24T05:18:10.886Z,11.25
2018-08-24T05:20:03.804Z,5.63
2018-08-24T05:21:03.819Z,5.63
2018-08-24T05:22:56.741Z,5.63
2018-08-24T05:23:56.795Z,11.25
2018-08-24T05:25:49.669Z,11.25
2018-08-24T05:26:49.687Z,16.88
2018-08-24T05:28:42.608Z,33.75
2018-08-24T05:29:42.627Z,50.63
2018-08-24T05:31:35.536Z,56.25
2018-08-24T05:32:35.564Z,61.88
2018-08-24T05:34:28.486Z,67.50
2018-08-24T05:35:28.530Z,67.50
2018-08-24T05:37:21.420Z,78.75
2018-08-24T05:38:21.435Z,78.75
2018-08-24T05:40:14.366Z,78.75
2018-08-24T05:41:14.397Z,84.38
2018-08-24T05:43:07.298Z,84.38
2018-08-24T05:44:07.316Z,90.00
2018-08-24T05:46:00.227Z,90.00
2018-08-24T05:47:00.252Z,95.63
2018-08-24T05:48:53.362Z,101.25
2018-08-24T05:49:53.184Z,101.25
2018-08-24T05:51:46.096Z,101.25
2018-08-24T05:52:46.126Z,112.50
2018-08-24T05:54:39.046Z,118.13
2018-08-24T05:55:39.072Z,112.50
2018-08-24T05:57:31.976Z,129.38
2018-08-24T05:58:31.998Z,135.00
2018-08-24T06:00:24.918Z,135.00
2018-08-24T06:01:24.936Z,135.00
2018-08-24T06:03:17.870Z,129.38
2018-08-24T06:04:17.891Z,123.75
2018-08-24T06:06:10.810Z,118.13
2018-08-24T06:07:10.829Z,118.13
2018-08-24T06:09:03.906Z,129.38
2018-08-24T06:10:03.922Z,135.00
2018-08-24T06:11:56.969Z,151.88
2018-08-24T06:12:56.980Z,151.88
2018-08-24T06:14:49.920Z,151.88
2018-08-24T06:15:49.936Z,157.50
2018-08-24T06:17:42.852Z,157.50
2018-08-24T06:18:42.856Z,157.50
2018-08-24T06:20:35.779Z,140.63
2018-08-24T06:21:35.793Z,146.25
2018-08-24T06:23:28.711Z,157.50
2018-08-24T06:24:28.770Z,157.50
2018-08-24T06:26:21.644Z,180.00
2018-08-24T06:27:21.668Z,180.00
2018-08-24T06:29:14.591Z,174.38
2018-08-24T06:30:14.608Z,180.00
2018-08-24T06:32:07.525Z,185.63
2018-08-24T06:33:07.571Z,191.25
2018-08-24T06:35:00.469Z,196.88
2018-08-24T06:36:00.483Z,196.88
2018-08-24T06:37:53.551Z,196.88
2018-08-24T06:38:53.575Z,196.88
2018-08-24T06:40:46.503Z,191.25
2018-08-24T06:41:46.541Z,196.88
2018-08-24T06:43:39.439Z,202.50
2018-08-24T06:44:39.455Z,208.13
2018-08-24T06:46:32.363Z,202.50
2018-08-24T06:47:32.445Z,202.50
2018-08-24T06:49:25.313Z,208.13
2018-08-24T06:50:25.328Z,213.75
2018-08-24T06:52:18.245Z,230.63
2018-08-24T06:53:18.412Z,241.88
2018-08-24T06:55:11.187Z,236.25
2018-08-24T06:56:11.203Z,241.88
2018-08-24T06:58:04.122Z,241.88
2018-08-24T06:59:04.147Z,230.63
2018-08-24T07:00:57.285Z,196.88
2018-08-24T07:01:57.301Z,191.25
2018-08-24T07:03:50.219Z,191.25
2018-08-24T07:04:50.253Z,180.00
2018-08-24T07:06:43.165Z,174.38
2018-08-24T07:07:43.180Z,208.13
2018-08-24T07:09:36.129Z,168.75
2018-08-24T07:10:36.202Z,146.25
2018-08-24T07:12:29.068Z,213.75
2018-08-24T07:13:29.196Z,258.75
2018-08-24T07:15:22.008Z,247.50
2018-08-24T07:16:22.046Z,208.13
2018-08-24T07:18:14.938Z,163.13
2018-08-24T07:19:14.963Z,163.13
2018-08-24T07:21:07.885Z,191.25
2018-08-24T07:22:07.903Z,247.50
2018-08-24T07:24:00.956Z,213.75
2018-08-24T07:25:00.993Z,213.75
2018-08-24T07:26:53.900Z,208.13
2018-08-24T07:27:53.919Z,191.25
2018-08-24T07:29:46.847Z,146.25
2018-08-24T07:30:46.863Z,163.13
2018-08-24T07:32:39.974Z,151.88
2018-08-24T07:33:39.996Z,180.00
2018-08-24T07:35:32.927Z,174.38
2018-08-24T07:36:32.952Z,174.38
2018-08-24T07:38:25.858Z,112.50
2018-08-24T07:39:25.880Z,112.50
2018-08-24T07:41:18.830Z,84.38
2018-08-24T07:42:18.832Z,73.13
2018-08-24T07:44:11.748Z,73.13
2018-08-24T07:45:11.772Z,106.88
2018-08-24T07:47:04.694Z,157.50
2018-08-24T07:48:04.708Z,185.63
2018-08-24T07:49:57.634Z,208.13
2018-08-24T07:50:57.721Z,135.00
2018-08-24T07:52:50.563Z,180.00
2018-08-24T07:53:50.588Z,236.25
2018-08-24T07:55:43.515Z,241.88
2018-08-24T07:56:43.527Z,258.75
2018-08-24T07:58:36.657Z,213.75
2018-08-24T07:59:36.691Z,236.25
2018-08-24T08:01:29.853Z,163.13
2018-08-24T08:02:29.868Z,163.13
2018-08-24T08:04:22.983Z,202.50
2018-08-24T08:05:23.061Z,213.75
2018-08-24T08:07:16.153Z,219.38
2018-08-24T08:08:16.168Z,225.00
2018-08-24T08:10:09.103Z,146.25
2018-08-24T08:11:09.123Z,174.38
2018-08-24T08:13:02.261Z,135.00
2018-08-24T08:14:02.284Z,123.75
2018-08-24T08:15:55.205Z,101.25
2018-08-24T08:16:55.218Z,112.50
2018-08-24T08:18:48.137Z,118.13
2018-08-24T08:19:48.161Z,135.00
2018-08-24T08:21:41.089Z,168.75
2018-08-24T08:22:41.107Z,163.13
2018-08-24T08:24:34.080Z,151.88
2018-08-24T08:25:34.044Z,106.88
2018-08-24T08:27:26.964Z,95.63
2018-08-24T08:28:26.983Z,95.63
2018-08-24T08:30:19.911Z,67.50
2018-08-24T08:31:19.920Z,73.13
2018-08-24T08:33:12.839Z,202.50
2018-08-24T08:34:12.859Z,230.63
2018-08-24T08:36:05.780Z,236.25
2018-08-24T08:37:05.799Z,196.88
2018-08-24T08:38:59.373Z,168.75
2018-08-24T08:39:58.994Z,168.75
2018-08-24T08:41:51.900Z,168.75
2018-08-24T08:42:52.286Z,157.50
2018-08-24T08:44:44.900Z,135.00
2018-08-24T08:45:44.868Z,146.25
2018-08-24T08:47:37.808Z,140.63
2018-08-24T08:48:38.264Z,118.13
2018-08-24T08:50:30.974Z,78.75
2018-08-24T08:51:30.985Z,78.75
2018-08-24T08:53:24.130Z,185.63
2018-08-24T08:54:24.142Z,191.25
2018-08-24T08:56:17.065Z,202.50
2018-08-24T08:57:17.095Z,202.50
2018-08-24T08:59:09.991Z,196.88
2018-08-24T09:00:10.015Z,230.63
2018-08-24T09:02:02.935Z,247.50
2018-08-24T09:03:02.961Z,264.38
2018-08-24T09:04:55.860Z,298.13
2018-08-24T09:05:55.941Z,309.38
2018-08-24T09:07:48.816Z,348.75
2018-08-24T09:08:48.831Z,354.38
2018-08-24T09:10:41.764Z,354.38
2018-08-24T09:14:35.337Z,393.75
2018-08-24T09:16:28.196Z,410.63
2018-08-24T09:17:28.156Z,416.25
2018-08-24T09:19:21.135Z,348.75
2018-08-24T09:20:21.240Z,399.38
2018-08-24T09:22:14.084Z,382.50
2018-08-24T09:23:14.101Z,388.13
2018-08-24T09:25:07.017Z,405.00
2018-08-24T09:26:07.043Z,410.63
2018-08-24T09:27:59.966Z,427.50
2018-08-24T09:28:59.981Z,444.38
2018-08-24T09:30:52.918Z,517.50
2018-08-24T09:31:52.922Z,534.38
2018-08-24T09:33:45.835Z,551.25
2018-08-24T09:34:45.862Z,534.38
2018-08-24T09:36:38.784Z,495.00
2018-08-24T09:37:38.804Z,483.75
2018-08-24T09:39:31.903Z,472.50
2018-08-24T09:40:31.954Z,483.75
2018-08-24T09:42:24.881Z,450.00
2018-08-24T09:43:24.873Z,416.25
2018-08-24T09:45:17.785Z,393.75
2018-08-24T09:46:17.815Z,382.50
2018-08-24T09:48:10.765Z,376.88
2018-08-24T09:49:10.788Z,388.13
2018-08-24T09:51:03.663Z,388.13
2018-08-24T09:52:03.690Z,388.13
2018-08-24T09:53:56.650Z,371.25
2018-08-24T09:54:56.646Z,365.63
2018-08-24T09:56:49.569Z,286.88
2018-08-24T09:57:49.593Z,292.50
2018-08-24T09:59:42.492Z,253.13
2018-08-24T10:00:42.518Z,241.88
2018-08-24T10:02:35.510Z,275.63
2018-08-24T10:03:35.481Z,292.50
2018-08-24T10:05:28.407Z,427.50
2018-08-24T10:06:28.520Z,421.88
2018-08-24T10:08:21.346Z,410.63
2018-08-24T10:09:21.366Z,399.38
2018-08-24T10:11:14.283Z,450.00
2018-08-24T10:12:14.309Z,382.50
2018-08-24T10:14:07.226Z,298.13
2018-08-24T10:15:07.246Z,326.25
2018-08-24T10:17:00.168Z,354.38
2018-08-24T10:18:00.184Z,382.50
2018-08-24T10:19:53.101Z,438.75
2018-08-24T10:20:53.122Z,393.75
2018-08-24T10:22:46.050Z,320.63
2018-08-24T10:23:46.067Z,281.25
2018-08-24T10:25:38.987Z,219.38
2018-08-24T10:26:39.011Z,180.00
2018-08-24T10:28:31.935Z,191.25
2018-08-24T10:29:31.993Z,196.88
2018-08-24T10:31:24.887Z,191.25
2018-08-24T10:32:24.902Z,191.25
2018-08-24T10:34:17.818Z,196.88
2018-08-24T10:35:17.835Z,174.38
2018-08-24T10:37:10.766Z,191.25
2018-08-24T10:38:10.772Z,196.88
2018-08-24T10:40:03.685Z,185.63
2018-08-24T10:41:03.708Z,196.88
2018-08-24T10:42:56.786Z,208.13
2018-08-24T10:43:56.819Z,219.38
2018-08-24T10:45:49.718Z,270.00
2018-08-24T10:46:49.747Z,298.13
2018-08-24T10:48:42.688Z,382.50
2018-08-24T10:49:42.722Z,376.88
2018-08-24T10:51:35.621Z,331.88
2018-08-24T10:52:35.648Z,388.13
2018-08-24T10:54:28.600Z,264.38
2018-08-24T10:55:28.616Z,236.25
2018-08-24T10:57:21.535Z,258.75
2018-08-24T10:58:21.546Z,208.13
2018-08-24T11:00:14.616Z,185.63
2018-08-24T11:01:14.645Z,196.88
2018-08-24T11:03:07.572Z,202.50
2018-08-24T11:04:07.586Z,196.88
2018-08-24T11:06:00.503Z,202.50
2018-08-24T11:07:00.525Z,202.50
2018-08-24T11:08:53.447Z,275.63
2018-08-24T11:09:53.469Z,286.88
2018-08-24T11:11:46.412Z,320.63
2018-08-24T11:12:46.411Z,303.75
2018-08-24T11:14:39.339Z,275.63
2018-08-24T11:15:39.366Z,230.63
2018-08-24T11:17:32.294Z,180.00
2018-08-24T11:18:32.299Z,180.00
2018-08-24T11:20:25.224Z,208.13
2018-08-24T11:21:25.272Z,219.38
2018-08-24T11:23:18.172Z,258.75
2018-08-24T11:24:18.183Z,241.88
2018-08-24T11:26:11.238Z,163.13
2018-08-24T11:27:11.141Z,151.88
2018-08-24T11:29:04.091Z,174.38
2018-08-24T11:30:04.113Z,168.75
2018-08-24T11:31:57.032Z,163.13
2018-08-24T11:32:57.054Z,157.50
2018-08-24T11:34:49.979Z,146.25
2018-08-24T11:35:50.046Z,140.63
2018-08-24T11:37:42.911Z,157.50
2018-08-24T11:38:42.934Z,146.25
2018-08-24T11:40:35.857Z,163.13
2018-08-24T11:41:35.890Z,151.88
2018-08-24T11:43:28.800Z,174.38
2018-08-24T11:44:28.817Z,180.00
2018-08-24T11:46:21.733Z,180.00
2018-08-24T11:47:21.755Z,191.25
2018-08-24T11:49:14.686Z,213.75
2018-08-24T11:50:14.703Z,241.88
2018-08-24T11:52:07.620Z,292.50
2018-08-24T11:53:07.665Z,326.25
2018-08-24T11:55:00.569Z,331.88
2018-08-24T11:56:00.585Z,343.13
2018-08-24T11:57:53.682Z,354.38
2018-08-24T11:58:53.718Z,320.63
2018-08-24T12:00:46.886Z,331.88
2018-08-24T12:01:46.904Z,331.88
2018-08-24T12:03:39.813Z,343.13
2018-08-24T12:04:39.830Z,343.13
2018-08-24T12:06:32.747Z,433.13
2018-08-24T12:07:32.776Z,365.63
2018-08-24T12:09:25.756Z,303.75
2018-08-24T12:10:25.733Z,315.00
2018-08-24T12:12:18.798Z,275.63
2018-08-24T12:13:18.674Z,253.13
2018-08-24T12:15:11.604Z,219.38
2018-08-24T12:16:11.620Z,196.88
2018-08-24T12:18:05.574Z,180.00
2018-08-24T12:19:05.590Z,185.63
2018-08-24T12:20:58.517Z,185.63
2018-08-24T12:21:58.542Z,185.63
2018-08-24T12:23:51.619Z,174.38
2018-08-24T12:24:51.635Z,163.13
2018-08-24T12:26:44.549Z,157.50
2018-08-24T12:27:44.576Z,146.25
2018-08-24T12:29:37.501Z,146.25
2018-08-24T12:30:37.516Z,157.50
2018-08-24T12:32:30.435Z,180.00
2018-08-24T12:33:30.460Z,157.50
2018-08-24T12:35:23.387Z,146.25
2018-08-24T12:36:23.402Z,140.63
2018-08-24T12:38:16.318Z,151.88
2018-08-24T12:39:16.342Z,157.50
2018-08-24T12:41:09.333Z,180.00
2018-08-24T12:42:09.296Z,191.25
2018-08-24T12:44:02.239Z,196.88
2018-08-24T12:45:02.236Z,191.25
2018-08-24T12:46:55.155Z,168.75
2018-08-24T12:47:55.182Z,163.13
2018-08-24T12:49:48.104Z,168.75
2018-08-24T12:50:48.119Z,202.50
2018-08-24T12:52:41.050Z,202.50
2018-08-24T12:53:41.102Z,185.63
2018-08-24T12:55:34.001Z,168.75
2018-08-24T12:56:34.010Z,157.50
2018-08-24T12:58:26.944Z,146.25
2018-08-24T12:59:26.967Z,140.63
2018-08-24T13:01:19.893Z,174.38
2018-08-24T13:02:19.910Z,174.38
2018-08-24T13:04:12.853Z,163.13
2018-08-24T13:05:12.870Z,157.50
2018-08-24T13:07:05.787Z,163.13
2018-08-24T13:08:05.812Z,185.63
2018-08-24T13:09:58.736Z,236.25
2018-08-24T13:10:58.755Z,286.88
2018-08-24T13:12:51.669Z,337.50
2018-08-24T13:13:51.693Z,298.13
2018-08-24T13:15:44.639Z,264.38
2018-08-24T13:16:44.653Z,286.88
2018-08-24T13:18:37.574Z,315.00
2018-08-24T13:19:37.599Z,281.25
2018-08-24T13:21:30.596Z,241.88
2018-08-24T13:22:30.541Z,225.00
2018-08-24T13:24:23.468Z,174.38
2018-08-24T13:25:23.484Z,174.38
2018-08-24T13:27:16.661Z,168.75
2018-08-24T13:28:16.607Z,163.13
2018-08-24T13:30:09.539Z,157.50
2018-08-24T13:31:09.557Z,157.50
2018-08-24T13:33:02.473Z,157.50
2018-08-24T13:34:02.502Z,157.50
2018-08-24T13:35:55.424Z,163.13
2018-08-24T13:36:55.449Z,163.13
2018-08-24T13:38:48.364Z,163.13
2018-08-24T13:39:48.383Z,168.75
2018-08-24T13:41:41.334Z,213.75
2018-08-24T13:42:41.349Z,225.00
2018-08-24T13:44:34.273Z,219.38
2018-08-24T13:45:34.289Z,236.25
2018-08-24T13:47:27.311Z,292.50
2018-08-24T13:48:27.240Z,337.50
2018-08-24T13:50:20.160Z,360.00
2018-08-24T13:51:20.176Z,348.75
2018-08-24T13:53:13.096Z,298.13
2018-08-24T13:54:13.119Z,292.50
2018-08-24T13:56:06.045Z,286.88
2018-08-24T13:57:06.062Z,292.50
2018-08-24T13:58:58.981Z,315.00
2018-08-24T13:59:59.098Z,320.63
2018-08-24T14:01:51.942Z,337.50
2018-08-24T14:02:51.958Z,337.50
2018-08-24T14:04:44.877Z,315.00
2018-08-24T14:05:44.895Z,320.63
2018-08-24T14:07:37.816Z,331.88
2018-08-24T14:08:37.846Z,331.88
2018-08-24T14:10:30.765Z,326.25
2018-08-24T14:11:30.785Z,331.88
2018-08-24T14:13:24.292Z,343.13
2018-08-24T14:14:23.726Z,348.75
2018-08-24T14:16:16.670Z,354.38
2018-08-24T14:17:16.676Z,348.75
2018-08-24T14:19:09.589Z,348.75
2018-08-24T14:20:09.618Z,354.38
2018-08-24T14:22:02.542Z,360.00
2018-08-24T14:23:02.560Z,365.63
2018-08-24T14:24:55.486Z,354.38
2018-08-24T14:25:55.507Z,354.38
2018-08-24T14:27:48.423Z,337.50
2018-08-24T14:28:48.475Z,331.88
2018-08-24T14:30:41.379Z,315.00
2018-08-24T14:31:41.469Z,303.75
2018-08-24T14:33:34.312Z,292.50
2018-08-24T14:34:34.345Z,292.50
2018-08-24T14:36:27.280Z,281.25
2018-08-24T14:37:27.305Z,281.25
2018-08-24T14:39:20.223Z,281.25
2018-08-24T14:40:20.242Z,281.25
2018-08-24T14:42:13.174Z,275.63
2018-08-24T14:43:13.192Z,275.63
2018-08-24T14:45:06.117Z,275.63
2018-08-24T14:46:06.139Z,275.63
2018-08-24T14:47:59.200Z,275.63
2018-08-24T14:48:59.223Z,275.63
2018-08-24T14:50:52.145Z,281.25
2018-08-24T14:51:52.165Z,286.88
2018-08-24T14:53:45.080Z,286.88
2018-08-24T14:54:45.107Z,298.13
2018-08-24T14:56:38.043Z,315.00
2018-08-24T14:57:38.177Z,320.63
2018-08-24T14:59:30.974Z,303.75
2018-08-24T15:00:30.997Z,298.13
2018-08-24T15:02:23.929Z,286.88
2018-08-24T15:03:23.947Z,286.88
2018-08-24T15:05:16.898Z,286.88
2018-08-24T15:06:16.888Z,286.88
2018-08-24T15:08:09.826Z,292.50
2018-08-24T15:09:09.871Z,292.50
2018-08-24T15:11:02.760Z,303.75
2018-08-24T15:12:02.793Z,309.38
2018-08-24T15:13:55.717Z,309.38
2018-08-24T15:14:55.745Z,309.38
2018-08-24T15:16:48.710Z,303.75
2018-08-24T15:17:48.708Z,309.38
2018-08-24T15:19:41.605Z,320.63
2018-08-24T15:20:41.629Z,315.00
2018-08-24T15:22:34.563Z,303.75
2018-08-24T15:23:34.576Z,298.13
2018-08-24T15:25:27.502Z,275.63
2018-08-24T15:26:27.543Z,270.00
2018-08-24T15:28:20.440Z,264.38
2018-08-24T15:29:20.484Z,264.38
2018-08-24T15:31:13.394Z,270.00
2018-08-24T15:32:13.412Z,270.00
2018-08-24T15:34:06.339Z,264.38
2018-08-24T15:35:06.406Z,264.38
2018-08-24T15:36:59.280Z,281.25
2018-08-24T15:37:59.298Z,292.50
2018-08-24T15:39:52.220Z,292.50
2018-08-24T15:40:52.243Z,298.13
2018-08-24T15:42:45.211Z,270.00
2018-08-24T15:43:45.204Z,264.38
2018-08-24T15:45:38.117Z,258.75
2018-08-24T15:46:38.181Z,258.75
2018-08-24T15:48:31.068Z,258.75
2018-08-24T15:49:31.454Z,258.75
2018-08-24T15:51:24.010Z,253.13
2018-08-24T15:52:24.012Z,253.13
2018-08-24T15:54:16.925Z,247.50
2018-08-24T15:55:16.952Z,241.88
2018-08-24T15:57:10.093Z,241.88
2018-08-24T15:58:10.111Z,236.25
2018-08-24T16:00:04.039Z,236.25
2018-08-24T16:01:04.047Z,236.25
2018-08-24T16:02:57.006Z,230.63
2018-08-24T16:03:56.988Z,230.63
2018-08-24T16:05:49.938Z,219.38
2018-08-24T16:06:49.931Z,213.75
2018-08-24T16:08:42.876Z,196.88
2018-08-24T16:09:42.875Z,185.63
2018-08-24T16:11:35.800Z,163.13
2018-08-24T16:12:35.812Z,168.75
2018-08-24T16:14:28.728Z,163.13
2018-08-24T16:15:28.750Z,163.13
2018-08-24T16:17:21.681Z,163.13
2018-08-24T16:18:21.700Z,163.13
2018-08-24T16:20:14.620Z,151.88
2018-08-24T16:21:14.657Z,146.25
2018-08-24T16:23:07.564Z,146.25
2018-08-24T16:24:07.583Z,146.25
2018-08-24T16:26:00.531Z,140.63
2018-08-24T16:27:00.521Z,146.25
2018-08-24T16:28:53.448Z,146.25
2018-08-24T16:29:53.470Z,146.25
2018-08-24T16:31:46.397Z,140.63
2018-08-24T16:32:46.502Z,135.00
2018-08-24T16:34:39.323Z,123.75
2018-08-24T16:35:39.349Z,118.13
2018-08-24T16:37:32.294Z,106.88
2018-08-24T16:38:32.288Z,106.88
2018-08-24T16:40:25.211Z,112.50
2018-08-24T16:41:25.225Z,112.50
2018-08-24T16:43:18.173Z,112.50
2018-08-24T16:44:18.170Z,106.88
2018-08-24T16:46:11.942Z,106.88
2018-08-24T16:47:11.676Z,106.88
2018-08-24T16:49:04.163Z,101.25
2018-08-24T16:50:04.212Z,101.25
2018-08-24T16:51:57.167Z,101.25
2018-08-24T16:52:57.121Z,90.00
2018-08-24T16:54:50.044Z,78.75
2018-08-24T16:55:50.067Z,78.75
2018-08-24T16:57:42.990Z,78.75
2018-08-24T16:58:43.006Z,78.75
2018-08-24T17:00:35.928Z,78.75
2018-08-24T17:01:35.946Z,78.75
2018-08-24T17:03:28.871Z,78.75
2018-08-24T17:04:28.886Z,78.75
2018-08-24T17:06:21.796Z,84.38
2018-08-24T17:07:21.822Z,84.38
2018-08-24T17:09:14.765Z,84.38
2018-08-24T17:10:14.784Z,84.38
2018-08-24T17:12:08.808Z,78.75
2018-08-24T17:13:07.735Z,78.75
2018-08-24T17:15:00.673Z,78.75
2018-08-24T17:16:00.672Z,78.75
2018-08-24T17:17:53.589Z,78.75
2018-08-24T17:18:53.605Z,78.75
2018-08-24T17:20:46.717Z,78.75
2018-08-24T17:21:46.740Z,73.13
2018-08-24T17:23:39.666Z,67.50
2018-08-24T17:24:39.680Z,67.50
2018-08-24T17:26:32.787Z,61.88
2018-08-24T17:27:32.804Z,61.88
2018-08-24T17:29:25.735Z,61.88
2018-08-24T17:30:25.741Z,61.88
2018-08-24T17:32:18.668Z,61.88
2018-08-24T17:33:18.684Z,61.88
2018-08-24T17:35:11.598Z,61.88
2018-08-24T17:36:11.629Z,61.88
2018-08-24T17:38:04.710Z,56.25
2018-08-24T17:39:04.728Z,50.63
2018-08-24T17:40:57.636Z,50.63
2018-08-24T17:41:57.710Z,45.00
2018-08-24T17:43:50.610Z,39.38
2018-08-24T17:44:50.601Z,33.75
2018-08-24T17:46:43.510Z,28.13
2018-08-24T17:47:43.533Z,28.13
2018-08-24T17:49:36.467Z,28.13
2018-08-24T17:50:36.477Z,28.13
2018-08-24T17:52:29.401Z,28.13
2018-08-24T17:53:29.418Z,28.13
2018-08-24T17:55:22.324Z,22.50
2018-08-24T17:56:22.349Z,22.50
2018-08-24T17:58:15.266Z,22.50
2018-08-24T17:59:15.282Z,16.88
2018-08-24T18:01:08.196Z,16.88
2018-08-24T18:02:08.217Z,16.88
2018-08-24T18:04:01.140Z,11.25
2018-08-24T18:05:01.187Z,11.25
2018-08-24T18:06:54.077Z,11.25
2018-08-24T18:07:54.097Z,5.63
2018-08-24T18:09:47.020Z,5.63
2018-08-24T18:10:47.066Z,5.63
2018-08-24T18:12:39.952Z,5.63
2018-08-24T18:13:39.967Z,11.25
2018-08-24T18:15:32.877Z,11.25
2018-08-24T18:16:32.928Z,5.63
2018-08-24T18:18:25.833Z,5.63
2018-08-24T18:19:25.850Z,5.63
2018-08-24T18:21:18.828Z,5.63
2018-08-24T18:22:18.959Z,5.63
2018-08-24T18:24:11.788Z,5.63